createdAt,value
2018-02-22T00:01:52.211Z,53.30
2018-02-22T00:04:20.494Z,54.10
2018-02-22T00:06:48.766Z,57.60
2018-02-22T00:09:17.059Z,54.20
2018-02-22T00:11:44.566Z,54.13
2018-02-22T00:14:12.179Z,56.40
2018-02-22T00:16:39.686Z,56.97
2018-02-22T00:19:07.215Z,56.77
2018-02-22T00:21:34.742Z,56.40
2018-02-22T00:24:03.018Z,57.90
2018-02-22T00:26:31.311Z,55.90
2018-02-22T00:28:58.869Z,54.90
2018-02-22T00:31:26.427Z,58.77
2018-02-22T00:33:53.989Z,57.00
2018-02-22T00:36:21.552Z,56.73
2018-02-22T00:38:49.063Z,54.97
2018-02-22T00:41:16.654Z,51.23
2018-02-22T00:43:44.166Z,53.40
2018-02-22T00:46:11.690Z,58.53
2018-02-22T00:48:39.234Z,55.70
2018-02-22T00:51:06.759Z,54.00
2018-02-22T00:53:34.346Z,55.03
2018-02-22T00:56:01.914Z,51.27
2018-02-22T00:58:29.419Z,52.83
2018-02-22T01:00:56.942Z,49.80
2018-02-22T01:03:24.483Z,47.67
2018-02-22T01:05:52.055Z,49.90
2018-02-22T01:08:19.619Z,45.73
2018-02-22T01:10:47.162Z,47.20
2018-02-22T01:13:14.723Z,49.03
2018-02-22T01:15:42.247Z,42.67
2018-02-22T01:18:10.522Z,48.10
2018-02-22T01:20:38.226Z,48.17
2018-02-22T01:23:05.736Z,45.63
2018-02-22T01:25:33.258Z,51.20
2018-02-22T01:28:00.767Z,49.40
2018-02-22T01:30:29.055Z,45.60
2018-02-22T01:32:57.330Z,49.40
2018-02-22T01:35:25.626Z,48.43
2018-02-22T01:37:53.134Z,46.93
2018-02-22T01:40:20.686Z,49.97
2018-02-22T01:42:48.195Z,44.70
2018-02-22T01:45:15.717Z,45.43
2018-02-22T01:47:43.240Z,45.80
2018-02-22T01:50:10.754Z,46.67
2018-02-22T01:52:39.048Z,46.13
2018-02-22T01:55:06.562Z,43.90
2018-02-22T01:57:34.086Z,45.23
2018-02-22T02:00:01.594Z,42.57
2018-02-22T02:02:29.886Z,45.77
2018-02-22T02:04:58.175Z,42.23
2018-02-22T02:07:25.707Z,42.57
2018-02-22T02:09:54.020Z,42.83
2018-02-22T02:12:21.555Z,42.10
2018-02-22T02:14:49.837Z,41.57
2018-02-22T02:17:17.371Z,42.07
2018-02-22T02:19:44.874Z,44.00
2018-02-22T02:22:12.402Z,37.30
2018-02-22T02:24:40.675Z,38.20
2018-02-22T02:27:08.971Z,40.77
2018-02-22T02:29:36.484Z,40.90
2018-02-22T02:32:04.012Z,42.07
2018-02-22T02:34:31.518Z,42.90
2018-02-22T02:36:59.809Z,38.10
2018-02-22T02:39:28.098Z,42.40
2018-02-22T02:41:55.634Z,38.20
2018-02-22T02:44:23.908Z,41.10
2018-02-22T02:46:52.194Z,39.03
2018-02-22T02:49:20.479Z,39.87
2018-02-22T02:51:48.011Z,39.10
2018-02-22T02:54:15.525Z,39.53
2018-02-22T02:56:43.051Z,40.20
2018-02-22T02:59:10.578Z,39.47
2018-02-22T03:01:38.878Z,39.37
2018-02-22T03:04:07.155Z,39.83
2018-02-22T03:06:35.450Z,38.40
2018-02-22T03:09:03.013Z,37.93
2018-02-22T03:11:30.541Z,39.00
2018-02-22T03:13:58.813Z,38.60
2018-02-22T03:16:27.102Z,37.67
2018-02-22T03:18:55.375Z,39.90
2018-02-22T03:21:23.666Z,37.93
2018-02-22T03:23:51.183Z,39.77
2018-02-22T03:26:18.706Z,39.30
2018-02-22T03:28:46.215Z,38.07
2018-02-22T03:31:14.511Z,36.40
2018-02-22T03:33:42.074Z,38.73
2018-02-22T03:36:09.634Z,38.40
2018-02-22T03:38:37.143Z,37.97
2018-02-22T03:41:04.675Z,37.07
2018-02-22T03:43:32.187Z,37.97
2018-02-22T03:46:00.527Z,38.40
2018-02-22T03:48:28.010Z,40.17
2018-02-22T03:50:55.522Z,38.70
2018-02-22T03:53:23.046Z,40.10
2018-02-22T03:55:51.322Z,39.47
2018-02-22T03:58:19.614Z,39.50
2018-02-22T04:00:47.130Z,41.03
2018-02-22T04:03:14.662Z,41.23
2018-02-22T04:05:42.167Z,41.00
2018-02-22T04:08:10.462Z,38.27
2018-02-22T04:10:38.026Z,43.23
2018-02-22T04:13:05.562Z,37.97
2018-02-22T04:15:33.830Z,38.60
2018-02-22T04:18:02.132Z,40.93
2018-02-22T04:20:29.634Z,40.90
2018-02-22T04:22:57.159Z,43.90
2018-02-22T04:25:24.671Z,41.27
2018-02-22T04:27:52.201Z,40.87
2018-02-22T04:30:19.726Z,40.10
2018-02-22T04:32:47.282Z,37.90
2018-02-22T04:35:14.802Z,34.20
2018-02-22T04:37:42.333Z,35.93
2018-02-22T04:40:09.838Z,34.27
2018-02-22T04:42:38.146Z,34.10
2018-02-22T04:45:05.666Z,33.17
2018-02-22T04:47:33.958Z,33.57
2018-02-22T04:50:02.257Z,33.60
2018-02-22T04:52:29.791Z,33.40
2018-02-22T04:54:58.082Z,34.93
2018-02-22T04:57:25.590Z,32.20
2018-02-22T04:59:53.114Z,36.13
2018-02-22T05:02:21.463Z,33.57
2018-02-22T05:04:49.760Z,36.27
2018-02-22T05:07:17.266Z,34.37
2018-02-22T05:09:44.798Z,35.87
2018-02-22T05:12:12.303Z,35.27
2018-02-22T05:14:40.596Z,34.87
2018-02-22T05:17:08.115Z,34.60
2018-02-22T05:19:37.150Z,34.40
2018-02-22T05:22:04.659Z,37.10
2018-02-22T05:24:32.194Z,32.27
2018-02-22T05:26:59.698Z,34.87
2018-02-22T05:29:28.036Z,34.90
2018-02-22T05:31:55.562Z,33.27
2018-02-22T05:34:23.088Z,32.63
2018-02-22T05:36:51.378Z,35.90
2018-02-22T05:39:19.672Z,35.97
2018-02-22T05:41:47.237Z,34.80
2018-02-22T05:44:14.747Z,32.60
2018-02-22T05:46:43.779Z,32.80
2018-02-22T05:49:11.298Z,35.07
2018-02-22T05:51:38.827Z,32.63
2018-02-22T05:54:06.331Z,34.07
2018-02-22T05:56:34.634Z,35.47
2018-02-22T05:59:02.159Z,35.97
2018-02-22T06:01:29.684Z,34.20
2018-02-22T06:03:57.190Z,35.43
2018-02-22T06:06:25.487Z,35.97
2018-02-22T06:08:53.001Z,38.40
2018-02-22T06:11:20.544Z,38.40
2018-02-22T06:13:48.104Z,37.20
2018-02-22T06:16:15.630Z,34.90
2018-02-22T06:18:43.144Z,36.07
2018-02-22T06:21:10.671Z,40.00
2018-02-22T06:23:38.180Z,36.53
2018-02-22T06:26:06.479Z,38.07
2018-02-22T06:28:34.036Z,36.87
2018-02-22T06:31:01.562Z,36.43
2018-02-22T06:33:29.842Z,37.00
2018-02-22T06:35:58.142Z,37.50
2018-02-22T06:38:25.646Z,37.57
2018-02-22T06:40:53.259Z,38.50
2018-02-22T06:43:20.771Z,34.63
2018-02-22T06:45:49.811Z,35.37
2018-02-22T06:48:17.342Z,36.57
2018-02-22T06:50:45.651Z,35.00
2018-02-22T06:53:13.174Z,34.53
2018-02-22T06:55:40.678Z,36.03
2018-02-22T06:58:08.206Z,35.03
2018-02-22T07:00:36.478Z,34.40
2018-02-22T07:03:04.874Z,32.23
2018-02-22T07:05:32.386Z,33.57
2018-02-22T07:07:59.906Z,32.30
2018-02-22T07:10:27.414Z,33.03
2018-02-22T07:12:54.943Z,32.30
2018-02-22T07:15:22.450Z,33.10
2018-02-22T07:17:50.736Z,33.93
2018-02-22T07:20:18.267Z,35.70
2018-02-22T07:22:45.860Z,37.43
2018-02-22T07:25:13.366Z,35.37
2018-02-22T07:27:40.943Z,32.63
2018-02-22T07:30:08.538Z,34.00
2018-02-22T07:32:36.098Z,33.70
2018-02-22T07:35:03.663Z,33.23
2018-02-22T07:37:31.923Z,34.30
2018-02-22T07:39:59.429Z,34.60
2018-02-22T07:42:26.968Z,33.90
2018-02-22T07:44:54.482Z,35.30
2018-02-22T07:47:22.759Z,34.17
2018-02-22T07:49:51.059Z,34.57
2018-02-22T07:52:18.563Z,34.70
2018-02-22T07:54:46.087Z,33.20
2018-02-22T07:57:13.634Z,34.03
2018-02-22T07:59:41.191Z,31.93
2018-02-22T08:02:09.115Z,35.20
2018-02-22T08:04:36.629Z,30.63
2018-02-22T08:07:04.134Z,33.90
2018-02-22T08:09:31.658Z,33.40
2018-02-22T08:11:59.166Z,33.87
2018-02-22T08:14:27.463Z,35.80
2018-02-22T08:16:55.026Z,30.60
2018-02-22T08:19:22.555Z,35.17
2018-02-22T08:21:50.835Z,33.80
2018-02-22T08:24:19.126Z,33.20
2018-02-22T08:26:47.410Z,32.23
2018-02-22T08:29:14.938Z,34.97
2018-02-22T08:31:42.531Z,31.97
2018-02-22T08:34:10.090Z,34.27
2018-02-22T08:36:37.651Z,33.27
2018-02-22T08:39:05.206Z,33.23
2018-02-22T08:41:32.715Z,33.27
2018-02-22T08:44:00.256Z,32.87
2018-02-22T08:46:27.762Z,35.43
2018-02-22T08:48:56.037Z,32.07
2018-02-22T08:51:24.326Z,30.40
2018-02-22T08:53:51.831Z,32.20
2018-02-22T08:56:19.454Z,32.20
2018-02-22T08:58:46.963Z,35.10
2018-02-22T09:01:14.486Z,30.70
2018-02-22T09:03:41.990Z,32.00
2018-02-22T09:06:09.511Z,33.57
2018-02-22T09:08:37.016Z,32.57
2018-02-22T09:11:05.313Z,33.07
2018-02-22T09:13:32.819Z,31.37
2018-02-22T09:16:00.346Z,33.50
2018-02-22T09:18:27.899Z,31.87
2018-02-22T09:20:55.461Z,28.50
2018-02-22T09:23:22.968Z,33.90
2018-02-22T09:25:50.574Z,30.60
2018-02-22T09:28:18.135Z,31.17
2018-02-22T09:30:45.658Z,31.27
2018-02-22T09:33:13.173Z,31.63
2018-02-22T09:35:40.695Z,32.27
2018-02-22T09:38:08.207Z,31.67
2018-02-22T09:40:35.747Z,34.73
2018-02-22T09:43:03.255Z,32.87
2018-02-22T09:45:31.555Z,30.13
2018-02-22T09:47:59.080Z,31.27
2018-02-22T09:50:27.360Z,31.63
2018-02-22T09:52:54.959Z,30.83
2018-02-22T09:55:22.466Z,31.30
2018-02-22T09:57:49.991Z,31.47
2018-02-22T10:00:17.499Z,30.93
2018-02-22T10:02:45.791Z,30.97
2018-02-22T10:05:14.085Z,31.43
2018-02-22T10:07:41.610Z,32.30
2018-02-22T10:10:09.883Z,29.87
2018-02-22T10:12:38.174Z,33.30
2018-02-22T10:15:06.472Z,32.90
2018-02-22T10:17:34.026Z,32.57
2018-02-22T10:20:01.569Z,32.70
2018-02-22T10:22:29.071Z,30.93
2018-02-22T10:24:56.586Z,31.20
2018-02-22T10:27:24.880Z,31.60
2018-02-22T10:29:52.387Z,29.90
2018-02-22T10:32:19.906Z,32.37
2018-02-22T10:34:47.431Z,32.90
2018-02-22T10:37:15.831Z,31.10
2018-02-22T10:39:43.342Z,31.73
2018-02-22T10:42:11.651Z,32.70
2018-02-22T10:44:39.158Z,29.90
2018-02-22T10:47:06.663Z,29.03
2018-02-22T10:49:34.950Z,30.77
2018-02-22T10:52:02.461Z,28.23
2018-02-22T10:54:29.992Z,32.10
2018-02-22T10:56:57.499Z,32.50
2018-02-22T10:59:25.807Z,30.30
2018-02-22T11:01:59.087Z,30.70
2018-02-22T11:04:27.379Z,30.10
2018-02-22T11:06:54.887Z,30.83
2018-02-22T11:09:22.413Z,30.30
2018-02-22T11:11:49.922Z,29.20
2018-02-22T11:14:18.211Z,32.13
2018-02-22T11:16:46.483Z,31.60
2018-02-22T11:19:14.771Z,30.10
2018-02-22T11:21:42.339Z,31.10
2018-02-22T11:24:09.905Z,31.53
2018-02-22T11:26:37.454Z,30.90
2018-02-22T11:29:04.983Z,31.83
2018-02-22T11:31:33.254Z,28.37
2018-02-22T11:34:00.778Z,30.53
2018-02-22T11:36:28.282Z,29.90
2018-02-22T11:38:56.570Z,30.80
2018-02-22T11:41:24.846Z,29.27
2018-02-22T11:43:53.140Z,31.00
2018-02-22T11:46:20.646Z,30.07
2018-02-22T11:48:48.355Z,28.47
2018-02-22T11:51:15.876Z,28.20
2018-02-22T11:53:44.456Z,24.40
2018-02-22T11:56:11.983Z,28.57
2018-02-22T11:58:39.513Z,29.73
2018-02-22T12:01:07.035Z,31.87
2018-02-22T12:03:34.626Z,29.00
2018-02-22T12:06:02.164Z,30.60
2018-02-22T12:08:30.439Z,30.20
2018-02-22T12:10:58.728Z,30.07
2018-02-22T12:13:26.237Z,29.80
2018-02-22T12:15:53.765Z,33.70
2018-02-22T12:18:21.270Z,29.47
2018-02-22T12:20:50.307Z,29.60
2018-02-22T12:23:19.579Z,31.57
2018-02-22T12:25:47.867Z,30.70
2018-02-22T12:28:16.148Z,30.33
2018-02-22T12:30:43.671Z,31.73
2018-02-22T12:33:11.275Z,27.90
2018-02-22T12:35:38.794Z,29.40
2018-02-22T12:38:06.308Z,31.37
2018-02-22T12:40:33.831Z,29.17
2018-02-22T12:43:02.104Z,32.67
2018-02-22T12:45:30.403Z,30.00
2018-02-22T12:47:57.971Z,29.50
2018-02-22T12:50:25.495Z,31.10
2018-02-22T12:52:53.771Z,29.03
2018-02-22T12:55:22.064Z,31.50
2018-02-22T12:57:49.571Z,29.60
2018-02-22T13:00:17.097Z,30.17
2018-02-22T13:02:44.651Z,28.37
2018-02-22T13:05:12.174Z,31.40
2018-02-22T13:07:39.679Z,30.30
2018-02-22T13:10:07.208Z,28.73
2018-02-22T13:12:35.475Z,29.27
2018-02-22T13:15:03.763Z,31.27
2018-02-22T13:17:32.151Z,32.37
2018-02-22T13:19:59.658Z,29.93
2018-02-22T13:22:27.183Z,30.87
2018-02-22T13:24:54.688Z,28.57
2018-02-22T13:27:22.285Z,30.93
2018-02-22T13:29:49.848Z,32.57
2018-02-22T13:32:17.406Z,29.57
2018-02-22T13:34:44.929Z,29.33
2018-02-22T13:37:25.230Z,32.37
2018-02-22T13:39:52.779Z,30.70
2018-02-22T13:42:20.340Z,26.77
2018-02-22T13:44:59.634Z,29.97
2018-02-22T13:47:27.926Z,27.17
2018-02-22T13:50:08.103Z,29.33
2018-02-22T13:52:35.628Z,27.60
2018-02-22T13:55:03.144Z,29.10
2018-02-22T13:57:30.663Z,28.20
2018-02-22T13:59:58.930Z,29.90
2018-02-22T14:02:27.218Z,29.10
2018-02-22T14:04:55.691Z,29.33
2018-02-22T14:07:23.984Z,29.90
2018-02-22T14:09:51.551Z,30.30
2018-02-22T14:12:19.078Z,30.70
2018-02-22T14:14:47.350Z,31.20
2018-02-22T14:17:15.660Z,27.73
2018-02-22T14:19:43.223Z,30.00
2018-02-22T14:22:10.743Z,30.10
2018-02-22T14:24:38.246Z,26.73
2018-02-22T14:27:05.799Z,29.30
2018-02-22T14:29:33.310Z,30.67
2018-02-22T14:32:00.836Z,29.00
2018-02-22T14:34:28.342Z,27.67
2018-02-22T14:36:56.743Z,28.90
2018-02-22T14:39:24.312Z,28.30
2018-02-22T14:41:51.818Z,28.17
2018-02-22T14:44:19.346Z,26.60
2018-02-22T14:46:46.855Z,28.87
2018-02-22T14:49:15.151Z,29.07
2018-02-22T14:51:42.659Z,30.20
2018-02-22T14:54:10.283Z,26.23
2018-02-22T14:56:37.791Z,26.40
2018-02-22T14:59:05.311Z,26.00
2018-02-22T15:01:32.818Z,28.90
2018-02-22T15:04:01.106Z,29.43
2018-02-22T15:06:29.398Z,27.97
2018-02-22T15:08:56.928Z,28.17
2018-02-22T15:11:25.198Z,28.27
2018-02-22T15:13:52.791Z,29.63
2018-02-22T15:16:20.350Z,28.03
2018-02-22T15:18:47.870Z,27.10
2018-02-22T15:21:15.375Z,28.30
2018-02-22T15:23:42.899Z,26.37
2018-02-22T15:26:11.170Z,26.27
2018-02-22T15:28:38.698Z,30.47
2018-02-22T15:31:06.198Z,26.37
2018-02-22T15:33:34.486Z,27.67
2018-02-22T15:36:02.054Z,29.60
2018-02-22T15:38:29.575Z,26.53
2018-02-22T15:40:57.083Z,27.00
2018-02-22T15:43:24.624Z,28.17
2018-02-22T15:45:52.133Z,25.60
2018-02-22T15:48:19.645Z,27.73
2018-02-22T15:50:47.167Z,24.50
2018-02-22T15:53:14.672Z,27.67
2018-02-22T15:55:42.194Z,26.73
2018-02-22T15:58:10.498Z,27.60
2018-02-22T16:00:38.027Z,27.23
2018-02-22T16:03:06.303Z,26.47
2018-02-22T16:05:34.598Z,27.20
2018-02-22T16:08:02.104Z,28.00
2018-02-22T16:10:29.634Z,29.27
2018-02-22T16:12:57.140Z,25.63
2018-02-22T16:15:24.662Z,27.67
2018-02-22T16:17:52.194Z,29.70
2018-02-22T16:20:19.727Z,28.27
2018-02-22T16:22:48.004Z,27.77
2018-02-22T16:25:16.294Z,30.33
2018-02-22T16:27:44.584Z,27.77
2018-02-22T16:30:12.107Z,28.83
2018-02-22T16:32:39.619Z,29.73
2018-02-22T16:35:07.147Z,31.40
2018-02-22T16:37:35.430Z,27.03
2018-02-22T16:40:02.939Z,28.90
2018-02-22T16:42:30.464Z,30.00
2018-02-22T16:44:57.970Z,29.27
2018-02-22T16:47:26.263Z,29.00
2018-02-22T16:49:54.540Z,28.83
2018-02-22T16:52:22.834Z,30.20
2018-02-22T16:54:50.342Z,29.50
2018-02-22T16:57:17.870Z,29.10
2018-02-22T16:59:45.387Z,29.10
2018-02-22T17:02:13.679Z,32.03
2018-02-22T17:04:41.182Z,30.70
2018-02-22T17:07:08.713Z,29.57
2018-02-22T17:09:36.218Z,29.93
2018-02-22T17:12:03.819Z,27.87
2018-02-22T17:14:31.326Z,32.00
2018-02-22T17:16:58.939Z,29.73
2018-02-22T17:19:26.451Z,28.97
2018-02-22T17:21:53.979Z,29.90
2018-02-22T17:24:21.490Z,30.30
2018-02-22T17:26:55.390Z,30.50
2018-02-22T17:29:29.370Z,30.63
2018-02-22T17:32:02.583Z,27.97
2018-02-22T17:34:30.091Z,28.70
2018-02-22T17:37:00.574Z,28.60
2018-02-22T17:39:33.739Z,31.90
2018-02-22T17:42:01.267Z,27.83
2018-02-22T17:44:28.779Z,27.83
2018-02-22T17:46:56.310Z,29.63
2018-02-22T17:49:23.814Z,27.30
2018-02-22T17:51:52.091Z,27.83
2018-02-22T17:54:20.381Z,25.40
2018-02-22T17:56:47.887Z,27.97
2018-02-22T17:59:15.415Z,27.20
2018-02-22T18:01:43.864Z,29.67
2018-02-22T18:04:12.163Z,29.00
2018-02-22T18:06:39.666Z,26.60
2018-02-22T18:09:07.186Z,29.00
2018-02-22T18:11:34.691Z,28.47
2018-02-22T18:14:02.219Z,24.57
2018-02-22T18:16:29.726Z,27.67
2018-02-22T18:18:58.023Z,26.20
2018-02-22T18:21:25.578Z,25.63
2018-02-22T18:23:53.102Z,29.07
2018-02-22T18:26:20.702Z,29.13
2018-02-22T18:28:48.232Z,27.77
2018-02-22T18:31:16.535Z,25.40
2018-02-22T18:33:44.046Z,28.60
2018-02-22T18:36:12.506Z,26.53
2018-02-22T18:38:45.790Z,25.50
2018-02-22T18:41:13.310Z,27.17
2018-02-22T18:43:41.587Z,25.53
2018-02-22T18:46:09.119Z,25.60
2018-02-22T18:48:36.646Z,27.00
2018-02-22T18:51:04.170Z,26.77
2018-02-22T18:53:31.675Z,27.00
2018-02-22T18:55:59.194Z,27.27
2018-02-22T18:58:26.707Z,28.13
2018-02-22T19:00:54.317Z,28.70
2018-02-22T19:03:21.871Z,28.20
2018-02-22T19:05:49.431Z,29.73
2018-02-22T19:08:16.943Z,26.73
2018-02-22T19:10:44.467Z,29.57
2018-02-22T19:13:11.970Z,28.73
2018-02-22T19:15:40.265Z,27.60
2018-02-22T19:18:08.579Z,28.57
2018-02-22T19:20:36.113Z,27.93
2018-02-22T19:23:03.647Z,27.20
2018-02-22T19:25:31.922Z,26.30
2018-02-22T19:28:00.223Z,28.43
2018-02-22T19:30:27.788Z,29.37
2018-02-22T19:32:55.311Z,26.70
2018-02-22T19:35:22.898Z,29.57
2018-02-22T19:37:50.431Z,27.23
2018-02-22T19:40:18.738Z,26.33
2018-02-22T19:42:46.263Z,28.40
2018-02-22T19:45:13.854Z,26.87
2018-02-22T19:47:41.378Z,28.90
2018-02-22T19:50:08.892Z,27.43
2018-02-22T19:52:36.414Z,27.50
2018-02-22T19:55:03.926Z,26.60
2018-02-22T19:57:31.558Z,27.00
2018-02-22T19:59:59.067Z,25.00
2018-02-22T20:02:27.378Z,28.50
2018-02-22T20:04:54.887Z,25.37
2018-02-22T20:07:22.503Z,28.53
2018-02-22T20:09:50.016Z,26.23
2018-02-22T20:12:17.542Z,25.87
2018-02-22T20:14:45.055Z,29.00
2018-02-22T20:17:13.354Z,27.10
2018-02-22T20:19:40.911Z,27.63
2018-02-22T20:22:08.414Z,25.37
2018-02-22T20:24:35.935Z,26.57
2018-02-22T20:27:03.487Z,27.53
2018-02-22T20:29:31.055Z,27.50
2018-02-22T20:31:58.576Z,26.10
2018-02-22T20:34:26.992Z,26.03
2018-02-22T20:36:54.607Z,25.50
2018-02-22T20:39:22.213Z,27.37
2018-02-22T20:41:49.874Z,26.57
2018-02-22T20:44:17.402Z,26.03
2018-02-22T20:46:45.672Z,28.13
2018-02-22T20:49:13.966Z,26.40
2018-02-22T20:51:41.475Z,28.10
2018-02-22T20:54:09.000Z,26.10
2018-02-22T20:56:36.510Z,26.03
2018-02-22T20:59:05.575Z,24.67
2018-02-22T21:01:33.090Z,24.20
2018-02-22T21:04:01.437Z,26.60
2018-02-22T21:06:28.926Z,25.90
2018-02-22T21:08:57.235Z,25.53
2018-02-22T21:11:24.742Z,26.67
2018-02-22T21:13:53.056Z,26.77
2018-02-22T21:16:20.576Z,25.73
2018-02-22T21:18:48.850Z,26.97
2018-02-22T21:21:17.142Z,30.00
2018-02-22T21:23:45.451Z,29.20
2018-02-22T21:26:12.997Z,27.20
2018-02-22T21:28:40.555Z,26.33
2018-02-22T21:31:08.080Z,27.90
2018-02-22T21:33:36.376Z,27.40
2018-02-22T21:36:03.915Z,27.90
2018-02-22T21:38:32.195Z,28.87
2018-02-22T21:41:00.486Z,29.97
2018-02-22T21:43:28.779Z,25.30
2018-02-22T21:45:56.302Z,27.90
2018-02-22T21:48:24.654Z,27.70
2018-02-22T21:50:52.195Z,26.30
2018-02-22T21:53:19.719Z,28.27
2018-02-22T21:55:47.279Z,27.00
2018-02-22T21:58:14.811Z,27.53
2018-02-22T22:00:42.358Z,26.50
2018-02-22T22:03:10.327Z,27.63
2018-02-22T22:05:38.653Z,27.90
2018-02-22T22:08:06.206Z,26.37
2018-02-22T22:10:33.759Z,25.73
2018-02-22T22:13:01.266Z,28.80
2018-02-22T22:15:28.788Z,28.30
2018-02-22T22:17:56.321Z,26.20
2018-02-22T22:20:24.595Z,30.20
2018-02-22T22:22:52.898Z,26.97
2018-02-22T22:25:20.410Z,26.97
2018-02-22T22:27:48.033Z,27.20
2018-02-22T22:30:15.540Z,28.77
2018-02-22T22:32:43.874Z,30.87
2018-02-22T22:35:11.399Z,29.40
2018-02-22T22:37:38.922Z,27.07
2018-02-22T22:40:06.523Z,28.00
2018-02-22T22:42:34.047Z,28.70
2018-02-22T22:45:01.564Z,28.33
2018-02-22T22:47:29.098Z,30.67
2018-02-22T22:49:56.612Z,30.27
2018-02-22T22:52:24.162Z,30.33
2018-02-22T22:54:53.341Z,29.20
2018-02-22T22:57:20.880Z,27.90
2018-02-22T22:59:48.391Z,28.00
2018-02-22T23:02:15.987Z,28.63
2018-02-22T23:04:43.510Z,30.80
2018-02-22T23:07:11.066Z,29.93
2018-02-22T23:09:38.571Z,29.30
2018-02-22T23:12:06.094Z,29.80
2018-02-22T23:14:34.456Z,28.80
2018-02-22T23:17:02.012Z,28.43
2018-02-22T23:19:29.517Z,30.37
2018-02-22T23:21:57.024Z,29.50
2018-02-22T23:24:24.551Z,32.23
2018-02-22T23:26:52.055Z,28.50
2018-02-22T23:29:19.583Z,30.60
2018-02-22T23:31:47.100Z,29.07
2018-02-22T23:34:14.627Z,30.17
2018-02-22T23:36:42.142Z,31.77
2018-02-22T23:39:09.963Z,29.03
2018-02-22T23:41:58.152Z,31.80
2018-02-22T23:44:25.680Z,29.77
2018-02-22T23:46:53.947Z,30.90
2018-02-22T23:49:22.234Z,29.77
2018-02-22T23:51:49.738Z,27.43
2018-02-22T23:54:17.268Z,29.33
2018-02-22T23:56:44.770Z,30.00
2018-02-22T23:59:12.294Z,27.43
